MMRX 090043Z 05006KT 6SM BKN020 22/18 A2995 RMK 8/500 HZY FU= 090043

MMRX 082342Z 06006KT 6SM BKN020 23/18 A2994 RMK SLP133 56003 951 8/500 HZY FU= 082345

MMRX 082245Z 04006KT 6SM BKN020 22/17 A2993 RMK 8/500 HZY= 082245

MMRX 082145Z 03005KT 6SM OVC020 22/17 A2993 RMK 8/5// HZY= 082146

MMRX 082044Z 04008KT 6SM SCT013 OVC018 22/17 A2994 RMK SLP136 57028 953 8/5// HZY= 082048

MMRX 081945Z 35006KT 5SM BKN012 OVC015 22/16 A2995 RMK 8/5// HZY FU= 081948

MMRX 081844Z 02006KT 4SM SCT012 OVC015 21/16 A2999 RMK 8/5// HZY FU= 081846

MMRX 081751Z 35006KT 3SM BR HZ OVC010 20/15 A3003 RMK SLP164 56003 962 8/5//= 081752

MMRX 081640Z 36005KT 3SM BR HZ OVC010 18/13 A3005 RMK 8/5//= 081641

MMRX 081544Z 32004KT 3SM BR HZ SCT012 OVC015 16/13 A3005 RMK 8/5//= 081544

MMRX 081452Z 36002KT 3SM BR HZ SCT012 OVC015 16/13 A3004 RMK SLP167 5//// 972 8/5//= 081454

MMRX 081341Z 00000KT 3SM BR HZ OVC015 15/13 A3001 RMK 8/5//= 081342

MMRX 081301Z RTD 00000KT 3SM BR HZ OVC015 14/12 A3000 RMK 8/5// RTS= 081303

MMRX 080044Z 04004KT 6SM SKC 16/08 A2995 RMK HZY FU= 080044

MMRX 072341Z 05004KT 6SM SCT300 18/07 A2994 RMK SLP134 56005 962 8/002 HZY FU= 072342

MMRX 072240Z 05004KT 6SM BKN025 19/06 A2993 RMK 8/500 HZY FU= 072240

MMRX 072144Z 04004KT 6SM OVC025 19/06 A2993 RMK 8/5// HZY FU= 072147

MMRX 072047Z 02004KT 8SM OVC027 19/05 A2995 RMK SLP139 57037 903 8/5// HZY= 072047

MMRX 071941Z 00000KT 8SM OVC027 18/03 A2998 RMK 8/5// HZY= 071942

MMRX 071841Z 00000KT 10SM OVC025 18/02 A3002 RMK 8/5//= 071841

MMRX 071746Z 36005KT 10SM OVC025 17/02 A3006 RMK SLP176 57013 925 8/5//= 071747

MMRX 071649Z 32003KT 10SM OVC025 16/01 A3010 RMK 8/5//= 071649

MMRX 071542Z 36004KT 10SM OVC030 15/M01 A3011 RMK 8/5//= 071543

MMRX 071440Z 33006KT 10SM OVC025 15/01 A3010 RMK SLP189 5//// 940 8/4//= 071443

MMRX 071352Z 35006KT 10SM OVC025 15/01 A3009 RMK 8/4//= 071352

MMRX 071258Z RTD 33005KT 6SM OVC025 16/01 A3009 RMK 8/4// HZY RTS= 071259

MMRX 070041Z 30010KT 7SM BKN300 22/14 A3001 RMK 8/008 HZY= 070041

MMRX 062348Z 32006KT 7SM OVC300 26/18 A2997 RMK SLP146 52010 940 8/007 HZY= 062349

MMRX 062244Z 33010KT 8SM OVC300 27/18 A2996 RMK 8/007 HZY= 062245

MMRX 062140Z 33010KT 8SM OVC300 28/18 A2994 RMK 8/007 HZY= 062142

MMRX 062043Z 33010KT 8SM FEW030 BKN300 28/19 A2995 RMK SLP136 57015 936 8/108 HZY= 062045

MMRX 061941Z 29003KT 8SM SCT030 BKN300 28/19 A2995 RMK 8/108 HZY= 061943

MMRX 061846Z 12003KT 8SM SCT025 BKN300 27/19 A2996 RMK 8/108 HZY= 061847

MMRX 061745Z 18004KT 8SM SCT020 BKN300 27/19 A2999 RMK SLP151 52008 917 8/108 HZY= 061747

MMRX 061643Z 16006KT 7SM SCT020 OVC250 26/20 A3000 RMK 8/107 HZY= 061644

MMRX 061548Z 16005KT 6SM SCT012 OVC250 24/20 A2999 RMK 8/107 HZY= 061549

MMRX 061449Z 15005KT 6SM OVC250 23/20 A2996 RMK SLP143 5//// 955 8/007 HZY= 061450

MMRX 061351Z 15006KT 5SM BKN010 OVC300 22/20 A2994 RMK 8/607 BR HZ= 061352

MMRX 061305Z RTD 16005KT 4SM OVC010 23/20 A2993 RMK 8/6// BR HZ RTS= 061306

MMRX 060242Z 14008KT 10SM BKN250 23/19 A2989 RMK SLP117 52014 9// 8/008= 060243